Terminal Aerodrome Forecast
Issued by NWS

Home | Current Version | Previous Version | Text Only | Print | Product List | Glossary On
Versions: 1 2 3 4 5 6 7 8 9 10 11 12 13 14 15 16 17
000
FTUS41 KPHI 212100 AAA
TAFMIV
TAF AMD
KMIV 212106Z 2121/2218 15004KT P6SM SCT035
      TEMPO 2201/2204 4SM -SHRA BR OVC035
     FM220800 00000KT 4SM BR BKN050
     FM221200 07003KT P6SM BKN050=

USA.gov is the U.S. government's official web portal to all federal, state and local government web resources and services.